sensor_id;sensor_type;location;lat;lon;timestamp;pressure;altitude;pressure_sealevel;temperature;humidity
29461;BME280;16428;47.836;35.106;2024-03-08T00:00:12;101908.38;;;-1.59;82.68
29461;BME280;16428;47.836;35.106;2024-03-08T00:02:42;101903.47;;;-1.29;81.04
29461;BME280;16428;47.836;35.106;2024-03-08T00:05:10;101895.22;;;-1.40;81.29
29461;BME280;16428;47.836;35.106;2024-03-08T00:07:41;101895.63;;;-1.31;80.41
29461;BME280;16428;47.836;35.106;2024-03-08T00:10:10;101896.75;;;-1.36;80.69
29461;BME280;16428;47.836;35.106;2024-03-08T00:12:43;101900.47;;;-1.59;81.74
29461;BME280;16428;47.836;35.106;2024-03-08T00:15:15;101890.59;;;-1.54;82.26
29461;BME280;16428;47.836;35.106;2024-03-08T00:17:44;101898.16;;;-1.67;82.65
29461;BME280;16428;47.836;35.106;2024-03-08T00:20:12;101906.06;;;-1.67;82.57
29461;BME280;16428;47.836;35.106;2024-03-08T00:22:41;101905.38;;;-1.70;82.77
29461;BME280;16428;47.836;35.106;2024-03-08T00:25:08;101904.47;;;-1.69;82.38
29461;BME280;16428;47.836;35.106;2024-03-08T00:27:42;101892.84;;;-1.47;81.90
29461;BME280;16428;47.836;35.106;2024-03-08T00:30:10;101898.06;;;-1.45;81.23
29461;BME280;16428;47.836;35.106;2024-03-08T00:32:40;101894.56;;;-1.46;80.92
29461;BME280;16428;47.836;35.106;2024-03-08T00:35:08;101887.06;;;-1.36;80.97
29461;BME280;16428;47.836;35.106;2024-03-08T00:37:35;101895.34;;;-1.44;80.59
29461;BME280;16428;47.836;35.106;2024-03-08T00:40:03;101891.22;;;-1.30;79.81
29461;BME280;16428;47.836;35.106;2024-03-08T00:42:31;101888.81;;;-1.54;81.19
29461;BME280;16428;47.836;35.106;2024-03-08T00:44:58;101891.41;;;-1.72;82.12
29461;BME280;16428;47.836;35.106;2024-03-08T00:47:25;101888.81;;;-1.54;80.90
29461;BME280;16428;47.836;35.106;2024-03-08T00:49:53;101888.28;;;-1.62;81.95
29461;BME280;16428;47.836;35.106;2024-03-08T00:52:23;101886.09;;;-1.71;82.69
29461;BME280;16428;47.836;35.106;2024-03-08T00:54:53;101888.19;;;-1.79;82.65
29461;BME280;16428;47.836;35.106;2024-03-08T00:57:21;101874.06;;;-1.58;81.72
29461;BME280;16428;47.836;35.106;2024-03-08T00:59:48;101887.81;;;-1.70;82.73
29461;BME280;16428;47.836;35.106;2024-03-08T01:02:16;101872.41;;;-1.60;82.22
29461;BME280;16428;47.836;35.106;2024-03-08T01:04:45;101879.53;;;-1.62;82.90
29461;BME280;16428;47.836;35.106;2024-03-08T01:07:14;101872.03;;;-1.90;83.65
29461;BME280;16428;47.836;35.106;2024-03-08T01:09:42;101882.94;;;-1.79;83.81
29461;BME280;16428;47.836;35.106;2024-03-08T01:12:10;101878.88;;;-1.86;83.42
29461;BME280;16428;47.836;35.106;2024-03-08T01:14:38;101880.25;;;-1.59;82.14
29461;BME280;16428;47.836;35.106;2024-03-08T01:17:05;101880.66;;;-1.68;82.64
29461;BME280;16428;47.836;35.106;2024-03-08T01:19:32;101875.56;;;-1.71;82.81
29461;BME280;16428;47.836;35.106;2024-03-08T01:22:00;101889.34;;;-1.66;82.86
29461;BME280;16428;47.836;35.106;2024-03-08T01:24:27;101872.25;;;-1.76;83.07
29461;BME280;16428;47.836;35.106;2024-03-08T01:26:54;101880.19;;;-1.96;83.78
29461;BME280;16428;47.836;35.106;2024-03-08T01:29:21;101876.94;;;-2.01;85.01
29461;BME280;16428;47.836;35.106;2024-03-08T01:31:48;101872.28;;;-1.96;84.66
29461;BME280;16428;47.836;35.106;2024-03-08T01:34:15;101865.75;;;-2.06;84.81
29461;BME280;16428;47.836;35.106;2024-03-08T01:36:42;101872.25;;;-1.76;83.43
29461;BME280;16428;47.836;35.106;2024-03-08T01:39:09;101872.22;;;-1.95;85.13
29461;BME280;16428;47.836;35.106;2024-03-08T01:41:37;101876.16;;;-2.03;84.85
29461;BME280;16428;47.836;35.106;2024-03-08T01:44:04;101867.66;;;-2.10;85.56
29461;BME280;16428;47.836;35.106;2024-03-08T01:46:34;101877.94;;;-2.24;86.86
29461;BME280;16428;47.836;35.106;2024-03-08T01:49:01;101874.97;;;-2.37;87.78
29461;BME280;16428;47.836;35.106;2024-03-08T01:51:29;101873.28;;;-2.38;88.50
29461;BME280;16428;47.836;35.106;2024-03-08T01:54:00;101881.41;;;-2.24;87.14
29461;BME280;16428;47.836;35.106;2024-03-08T01:56:30;101877.75;;;-2.20;87.33
29461;BME280;16428;47.836;35.106;2024-03-08T01:58:59;101879.56;;;-2.22;87.10
29461;BME280;16428;47.836;35.106;2024-03-08T02:01:27;101878.91;;;-2.06;87.24
29461;BME280;16428;47.836;35.106;2024-03-08T02:03:55;101886.69;;;-2.24;86.66
29461;BME280;16428;47.836;35.106;2024-03-08T02:06:22;101885.41;;;-2.56;88.34
29461;BME280;16428;47.836;35.106;2024-03-08T02:08:49;101886.81;;;-2.47;88.64
29461;BME280;16428;47.836;35.106;2024-03-08T02:11:16;101886.94;;;-2.50;88.35
29461;BME280;16428;47.836;35.106;2024-03-08T02:13:44;101885.53;;;-2.59;89.08
29461;BME280;16428;47.836;35.106;2024-03-08T02:16:11;101883.88;;;-2.60;88.92
29461;BME280;16428;47.836;35.106;2024-03-08T02:18:38;101886.91;;;-2.70;89.54
29461;BME280;16428;47.836;35.106;2024-03-08T02:21:07;101882.56;;;-2.71;90.76
29461;BME280;16428;47.836;35.106;2024-03-08T02:23:36;101886.69;;;-2.64;90.27
29461;BME280;16428;47.836;35.106;2024-03-08T02:26:04;101891.81;;;-2.61;90.16
29461;BME280;16428;47.836;35.106;2024-03-08T02:28:32;101884.78;;;-2.61;89.92
29461;BME280;16428;47.836;35.106;2024-03-08T02:31:00;101891.91;;;-2.85;90.80
29461;BME280;16428;47.836;35.106;2024-03-08T02:33:28;101883.66;;;-2.75;90.84
29461;BME280;16428;47.836;35.106;2024-03-08T02:35:59;101887.97;;;-2.74;90.83
29461;BME280;16428;47.836;35.106;2024-03-08T02:38:27;101883.72;;;-2.77;91.08
29461;BME280;16428;47.836;35.106;2024-03-08T02:40:55;101886.56;;;-2.83;90.92
29461;BME280;16428;47.836;35.106;2024-03-08T02:43:22;101881.38;;;-2.85;91.00
29461;BME280;16428;47.836;35.106;2024-03-08T02:45:50;101883.66;;;-2.75;90.94
29461;BME280;16428;47.836;35.106;2024-03-08T02:48:20;101876.78;;;-2.79;90.89
29461;BME280;16428;47.836;35.106;2024-03-08T02:50:49;101885.72;;;-2.84;91.18
29461;BME280;16428;47.836;35.106;2024-03-08T02:53:18;101882.47;;;-2.90;91.36
29461;BME280;16428;47.836;35.106;2024-03-08T02:55:46;101884.63;;;-3.00;91.55
29461;BME280;16428;47.836;35.106;2024-03-08T02:58:13;101882.84;;;-2.77;90.67
29461;BME280;16428;47.836;35.106;2024-03-08T03:00:41;101883.25;;;-2.66;90.14
29461;BME280;16428;47.836;35.106;2024-03-08T03:03:12;101883.28;;;-3.10;91.71
29461;BME280;16428;47.836;35.106;2024-03-08T03:05:39;101884.91;;;-3.06;92.42
29461;BME280;16428;47.836;35.106;2024-03-08T03:08:13;101890.38;;;-3.12;93.68
29461;BME280;16428;47.836;35.106;2024-03-08T03:10:40;101886.16;;;-3.16;92.51
29461;BME280;16428;47.836;35.106;2024-03-08T03:13:07;101876.91;;;-3.04;92.27
29461;BME280;16428;47.836;35.106;2024-03-08T03:15:35;101877.41;;;-3.16;92.33
29461;BME280;16428;47.836;35.106;2024-03-08T03:18:04;101871.69;;;-3.26;94.30
29461;BME280;16428;47.836;35.106;2024-03-08T03:20:32;101870.09;;;-3.30;95.10
29461;BME280;16428;47.836;35.106;2024-03-08T03:23:00;101871.91;;;-3.32;95.24
29461;BME280;16428;47.836;35.106;2024-03-08T03:25:29;101876.09;;;-3.27;94.80
29461;BME280;16428;47.836;35.106;2024-03-08T03:28:04;101877.91;;;-3.29;94.76
29461;BME280;16428;47.836;35.106;2024-03-08T03:30:31;101875.59;;;-3.36;95.85
29461;BME280;16428;47.836;35.106;2024-03-08T03:33:01;101878.13;;;-3.35;96.47
29461;BME280;16428;47.836;35.106;2024-03-08T03:35:35;101882.09;;;-3.23;95.12
29461;BME280;16428;47.836;35.106;2024-03-08T03:38:04;101885.63;;;-3.24;95.53
29461;BME280;16428;47.836;35.106;2024-03-08T03:40:37;101887.69;;;-3.32;96.59
29461;BME280;16428;47.836;35.106;2024-03-08T03:43:05;101878.56;;;-3.45;97.20
29461;BME280;16428;47.836;35.106;2024-03-08T03:45:32;101881.06;;;-3.42;96.76
29461;BME280;16428;47.836;35.106;2024-03-08T03:48:05;101877.81;;;-3.49;96.46
29461;BME280;16428;47.836;35.106;2024-03-08T03:50:34;101876.72;;;-3.43;96.96
29461;BME280;16428;47.836;35.106;2024-03-08T03:53:04;101875.38;;;-3.53;98.00
29461;BME280;16428;47.836;35.106;2024-03-08T03:55:34;101881.56;;;-3.55;98.12
29461;BME280;16428;47.836;35.106;2024-03-08T03:58:01;101877.09;;;-3.52;98.35
29461;BME280;16428;47.836;35.106;2024-03-08T04:00:28;101889.66;;;-3.61;98.45
29461;BME280;16428;47.836;35.106;2024-03-08T04:02:55;101876.41;;;-3.58;99.24
29461;BME280;16428;47.836;35.106;2024-03-08T04:05:26;101890.72;;;-3.66;99.09
29461;BME280;16428;47.836;35.106;2024-03-08T04:07:53;101889.66;;;-3.61;99.56
29461;BME280;16428;47.836;35.106;2024-03-08T04:10:20;101875.66;;;-3.61;99.10
29461;BME280;16428;47.836;35.106;2024-03-08T04:12:48;101879.84;;;-3.56;98.91
29461;BME280;16428;47.836;35.106;2024-03-08T04:15:15;101885.38;;;-3.63;98.34
29461;BME280;16428;47.836;35.106;2024-03-08T04:17:42;101887.94;;;-3.62;99.15
29461;BME280;16428;47.836;35.106;2024-03-08T04:20:10;101886.59;;;-3.50;97.78
29461;BME280;16428;47.836;35.106;2024-03-08T04:22:38;101878.13;;;-3.57;98.57
29461;BME280;16428;47.836;35.106;2024-03-08T04:25:06;101884.72;;;-3.46;98.63
29461;BME280;16428;47.836;35.106;2024-03-08T04:27:33;101877.44;;;-3.38;97.43
29461;BME280;16428;47.836;35.106;2024-03-08T04:30:02;101879.47;;;-3.46;98.09
29461;BME280;16428;47.836;35.106;2024-03-08T04:32:30;101883.53;;;-3.38;97.48
29461;BME280;16428;47.836;35.106;2024-03-08T04:35:00;101874.47;;;-3.52;98.25
29461;BME280;16428;47.836;35.106;2024-03-08T04:37:31;101876.19;;;-3.51;97.39
29461;BME280;16428;47.836;35.106;2024-03-08T04:39:58;101876.91;;;-3.48;97.46
29461;BME280;16428;47.836;35.106;2024-03-08T04:42:28;101889.81;;;-3.65;98.54
29461;BME280;16428;47.836;35.106;2024-03-08T04:44:57;101897.53;;;-3.61;98.76
29461;BME280;16428;47.836;35.106;2024-03-08T04:47:25;101897.78;;;-3.67;99.04
29461;BME280;16428;47.836;35.106;2024-03-08T04:49:52;101895.00;;;-3.64;99.47
29461;BME280;16428;47.836;35.106;2024-03-08T04:52:20;101892.44;;;-3.65;100.00
29461;BME280;16428;47.836;35.106;2024-03-08T04:54:49;101892.63;;;-3.70;100.00
29461;BME280;16428;47.836;35.106;2024-03-08T04:57:16;101889.31;;;-3.51;99.11
29461;BME280;16428;47.836;35.106;2024-03-08T04:59:46;101894.38;;;-3.47;98.91
29461;BME280;16428;47.836;35.106;2024-03-08T05:02:13;101883.94;;;-3.48;98.21
29461;BME280;16428;47.836;35.106;2024-03-08T05:04:40;101895.94;;;-3.41;98.91
29461;BME280;16428;47.836;35.106;2024-03-08T05:07:08;101894.38;;;-3.47;98.99
29461;BME280;16428;47.836;35.106;2024-03-08T05:09:35;101894.91;;;-3.37;99.16
29461;BME280;16428;47.836;35.106;2024-03-08T05:12:03;101898.88;;;-3.27;98.08
29461;BME280;16428;47.836;35.106;2024-03-08T05:14:30;101897.09;;;-3.27;97.98
29461;BME280;16428;47.836;35.106;2024-03-08T05:16:57;101903.16;;;-3.03;97.53
29461;BME280;16428;47.836;35.106;2024-03-08T05:19:25;101907.00;;;-2.90;96.39
29461;BME280;16428;47.836;35.106;2024-03-08T05:21:53;101905.94;;;-2.64;95.29
29461;BME280;16428;47.836;35.106;2024-03-08T05:24:20;101906.25;;;-2.71;94.63
29461;BME280;16428;47.836;35.106;2024-03-08T05:26:47;101906.63;;;-2.80;94.84
29461;BME280;16428;47.836;35.106;2024-03-08T05:29:15;101911.00;;;-2.59;93.62
29461;BME280;16428;47.836;35.106;2024-03-08T05:31:49;101914.19;;;-2.51;94.30
29461;BME280;16428;47.836;35.106;2024-03-08T05:34:17;101909.84;;;-2.32;93.94
29461;BME280;16428;47.836;35.106;2024-03-08T05:36:46;101907.66;;;-2.42;92.96
29461;BME280;16428;47.836;35.106;2024-03-08T05:39:13;101924.91;;;-2.35;92.33
29461;BME280;16428;47.836;35.106;2024-03-08T05:41:42;101919.91;;;-2.41;92.69
29461;BME280;16428;47.836;35.106;2024-03-08T05:44:10;101923.44;;;-2.42;92.35
29461;BME280;16428;47.836;35.106;2024-03-08T05:46:37;101917.94;;;-2.36;92.12
29461;BME280;16428;47.836;35.106;2024-03-08T05:49:06;101923.91;;;-2.53;92.64
29461;BME280;16428;47.836;35.106;2024-03-08T05:51:34;101926.16;;;-2.24;90.98
29461;BME280;16428;47.836;35.106;2024-03-08T05:54:06;101925.00;;;-2.17;89.56
29461;BME280;16428;47.836;35.106;2024-03-08T05:56:33;101921.16;;;-2.09;88.71
29461;BME280;16428;47.836;35.106;2024-03-08T05:59:00;101918.22;;;-1.83;89.27
29461;BME280;16428;47.836;35.106;2024-03-08T06:01:28;101916.53;;;-1.65;87.44
29461;BME280;16428;47.836;35.106;2024-03-08T06:03:56;101924.63;;;-1.89;88.18
29461;BME280;16428;47.836;35.106;2024-03-08T06:06:24;101922.31;;;-1.76;88.41
29461;BME280;16428;47.836;35.106;2024-03-08T06:08:52;101916.31;;;-1.40;86.60
29461;BME280;16428;47.836;35.106;2024-03-08T06:11:20;101918.16;;;-1.43;86.26
29461;BME280;16428;47.836;35.106;2024-03-08T06:13:48;101905.31;;;-1.31;85.62
29461;BME280;16428;47.836;35.106;2024-03-08T06:16:16;101906.44;;;-1.18;83.77
29461;BME280;16428;47.836;35.106;2024-03-08T06:18:43;101905.03;;;-1.25;85.62
29461;BME280;16428;47.836;35.106;2024-03-08T06:21:11;101901.41;;;-0.87;82.87
29461;BME280;16428;47.836;35.106;2024-03-08T06:23:39;101913.13;;;-0.92;83.27
29461;BME280;16428;47.836;35.106;2024-03-08T06:26:09;101908.25;;;-0.83;82.34
29461;BME280;16428;47.836;35.106;2024-03-08T06:28:36;101912.09;;;-0.90;82.60
29461;BME280;16428;47.836;35.106;2024-03-08T06:31:03;101908.06;;;-0.97;83.37
29461;BME280;16428;47.836;35.106;2024-03-08T06:33:31;101903.91;;;-0.84;81.94
29461;BME280;16428;47.836;35.106;2024-03-08T06:35:59;101900.78;;;-0.75;81.81
29461;BME280;16428;47.836;35.106;2024-03-08T06:38:26;101905.03;;;-0.53;82.67
29461;BME280;16428;47.836;35.106;2024-03-08T06:40:53;101904.25;;;-0.55;81.60
29461;BME280;16428;47.836;35.106;2024-03-08T06:43:21;101899.03;;;-0.57;81.92
29461;BME280;16428;47.836;35.106;2024-03-08T06:45:48;101900.81;;;-0.40;79.31
29461;BME280;16428;47.836;35.106;2024-03-08T06:48:19;101901.69;;;-0.22;79.95
29461;BME280;16428;47.836;35.106;2024-03-08T06:50:47;101891.41;;;-0.11;79.04
29461;BME280;16428;47.836;35.106;2024-03-08T06:53:14;101898.03;;;-0.20;79.67
29461;BME280;16428;47.836;35.106;2024-03-08T06:55:44;101891.00;;;0.14;77.39
29461;BME280;16428;47.836;35.106;2024-03-08T06:58:11;101890.81;;;0.17;77.37
29461;BME280;16428;47.836;35.106;2024-03-08T07:00:38;101895.16;;;0.66;74.78
29461;BME280;16428;47.836;35.106;2024-03-08T07:03:08;101891.72;;;0.64;74.50
29461;BME280;16428;47.836;35.106;2024-03-08T07:05:39;101886.03;;;0.56;75.46
29461;BME280;16428;47.836;35.106;2024-03-08T07:08:07;101892.34;;;0.69;73.90
29461;BME280;16428;47.836;35.106;2024-03-08T07:10:34;101892.09;;;0.90;73.40
29461;BME280;16428;47.836;35.106;2024-03-08T07:13:04;101899.78;;;1.24;72.44
29461;BME280;16428;47.836;35.106;2024-03-08T07:15:31;101896.16;;;1.11;72.14
29461;BME280;16428;47.836;35.106;2024-03-08T07:17:58;101895.75;;;1.49;72.03
29461;BME280;16428;47.836;35.106;2024-03-08T07:20:26;101902.31;;;1.71;70.53
29461;BME280;16428;47.836;35.106;2024-03-08T07:22:55;101896.03;;;1.58;70.26
29461;BME280;16428;47.836;35.106;2024-03-08T07:25:22;101898.09;;;1.83;70.04
29461;BME280;16428;47.836;35.106;2024-03-08T07:27:51;101909.88;;;2.07;69.04
29461;BME280;16428;47.836;35.106;2024-03-08T07:30:25;101906.59;;;1.74;69.28
29461;BME280;16428;47.836;35.106;2024-03-08T07:33:11;101898.72;;;1.72;70.36
29461;BME280;16428;47.836;35.106;2024-03-08T07:35:39;101898.31;;;1.94;69.12
29461;BME280;16428;47.836;35.106;2024-03-08T07:38:08;101891.03;;;2.12;69.59
29461;BME280;16428;47.836;35.106;2024-03-08T07:40:40;101889.59;;;2.06;69.10
29461;BME280;16428;47.836;35.106;2024-03-08T07:43:08;101889.31;;;2.54;67.40
29461;BME280;16428;47.836;35.106;2024-03-08T07:45:35;101896.75;;;2.90;66.03
29461;BME280;16428;47.836;35.106;2024-03-08T07:48:03;101887.50;;;2.54;66.62
29461;BME280;16428;47.836;35.106;2024-03-08T07:50:31;101887.63;;;2.38;68.30
29461;BME280;16428;47.836;35.106;2024-03-08T07:53:00;101888.28;;;2.56;67.56
29461;BME280;16428;47.836;35.106;2024-03-08T07:55:28;101881.22;;;2.69;68.44
29461;BME280;16428;47.836;35.106;2024-03-08T07:57:57;101887.41;;;3.24;66.72
29461;BME280;16428;47.836;35.106;2024-03-08T08:00:24;101880.88;;;2.47;69.02
29461;BME280;16428;47.836;35.106;2024-03-08T08:02:54;101870.56;;;2.42;67.72
29461;BME280;16428;47.836;35.106;2024-03-08T08:05:21;101876.84;;;3.09;65.31
29461;BME280;16428;47.836;35.106;2024-03-08T08:07:48;101873.16;;;2.85;65.30
29461;BME280;16428;47.836;35.106;2024-03-08T08:10:18;101874.50;;;2.64;66.08
29461;BME280;16428;47.836;35.106;2024-03-08T08:12:49;101863.53;;;2.56;67.44
29461;BME280;16428;47.836;35.106;2024-03-08T08:15:16;101871.53;;;2.82;66.70
29461;BME280;16428;47.836;35.106;2024-03-08T08:17:44;101867.28;;;3.07;65.63
29461;BME280;16428;47.836;35.106;2024-03-08T08:20:12;101861.53;;;3.00;65.74
29461;BME280;16428;47.836;35.106;2024-03-08T08:22:39;101859.78;;;3.13;65.02
29461;BME280;16428;47.836;35.106;2024-03-08T08:25:07;101861.50;;;3.27;64.35
29461;BME280;16428;47.836;35.106;2024-03-08T08:27:35;101856.69;;;3.46;62.66
29461;BME280;16428;47.836;35.106;2024-03-08T08:30:03;101857.19;;;3.51;63.47
29461;BME280;16428;47.836;35.106;2024-03-08T08:32:35;101857.94;;;3.53;61.81
29461;BME280;16428;47.836;35.106;2024-03-08T08:35:03;101853.91;;;3.35;62.09
29461;BME280;16428;47.836;35.106;2024-03-08T08:37:34;101850.13;;;3.65;61.61
29461;BME280;16428;47.836;35.106;2024-03-08T08:40:04;101850.72;;;3.56;60.58
29461;BME280;16428;47.836;35.106;2024-03-08T08:42:36;101847.97;;;3.44;61.32
29461;BME280;16428;47.836;35.106;2024-03-08T08:45:07;101844.91;;;4.27;60.70
29461;BME280;16428;47.836;35.106;2024-03-08T08:47:44;101851.59;;;4.19;58.29
29461;BME280;16428;47.836;35.106;2024-03-08T08:50:13;101840.28;;;4.29;58.94
29461;BME280;16428;47.836;35.106;2024-03-08T08:52:40;101842.59;;;4.46;57.00
29461;BME280;16428;47.836;35.106;2024-03-08T08:55:07;101834.56;;;4.35;57.83
29461;BME280;16428;47.836;35.106;2024-03-08T08:57:35;101838.34;;;4.56;57.93
29461;BME280;16428;47.836;35.106;2024-03-08T09:00:03;101835.25;;;5.10;56.77
29461;BME280;16428;47.836;35.106;2024-03-08T09:02:35;101827.16;;;4.87;54.81
29461;BME280;16428;47.836;35.106;2024-03-08T09:05:02;101821.78;;;4.40;56.03
29461;BME280;16428;47.836;35.106;2024-03-08T09:07:30;101830.41;;;4.67;56.54
29461;BME280;16428;47.836;35.106;2024-03-08T09:09:57;101829.97;;;4.37;54.36
29461;BME280;16428;47.836;35.106;2024-03-08T09:12:26;101826.28;;;4.63;55.89
29461;BME280;16428;47.836;35.106;2024-03-08T09:14:53;101827.44;;;4.72;54.08
29461;BME280;16428;47.836;35.106;2024-03-08T09:17:20;101813.88;;;4.51;55.68
29461;BME280;16428;47.836;35.106;2024-03-08T09:19:47;101821.47;;;5.16;53.00
29461;BME280;16428;47.836;35.106;2024-03-08T09:22:15;101814.94;;;5.66;52.32
29461;BME280;16428;47.836;35.106;2024-03-08T09:24:42;101817.59;;;5.20;52.78
29461;BME280;16428;47.836;35.106;2024-03-08T09:27:12;101814.88;;;4.61;52.89
29461;BME280;16428;47.836;35.106;2024-03-08T09:29:40;101826.63;;;5.06;53.19
29461;BME280;16428;47.836;35.106;2024-03-08T09:32:07;101822.72;;;4.75;53.25
29461;BME280;16428;47.836;35.106;2024-03-08T09:34:35;101817.47;;;4.50;54.26
29461;BME280;16428;47.836;35.106;2024-03-08T09:37:04;101811.41;;;4.48;55.19
29461;BME280;16428;47.836;35.106;2024-03-08T09:39:32;101815.88;;;4.84;53.44
29461;BME280;16428;47.836;35.106;2024-03-08T09:42:01;101813.88;;;4.51;54.35
29461;BME280;16428;47.836;35.106;2024-03-08T09:44:29;101805.00;;;4.27;55.93
29461;BME280;16428;47.836;35.106;2024-03-08T09:46:56;101810.88;;;4.55;54.96
29461;BME280;16428;47.836;35.106;2024-03-08T09:49:25;101806.16;;;4.59;54.35
29461;BME280;16428;47.836;35.106;2024-03-08T09:51:52;101804.25;;;5.09;53.39
29461;BME280;16428;47.836;35.106;2024-03-08T09:54:20;101803.31;;;4.86;52.66
29461;BME280;16428;47.836;35.106;2024-03-08T09:56:51;101800.34;;;4.78;53.58
29461;BME280;16428;47.836;35.106;2024-03-08T09:59:19;101800.41;;;4.65;53.55
29461;BME280;16428;47.836;35.106;2024-03-08T10:01:55;101797.34;;;4.82;53.58
29461;BME280;16428;47.836;35.106;2024-03-08T10:04:26;101785.22;;;4.78;53.66
29461;BME280;16428;47.836;35.106;2024-03-08T10:06:55;101786.13;;;4.90;53.69
29461;BME280;16428;47.836;35.106;2024-03-08T10:09:24;101784.84;;;5.07;53.12
29461;BME280;16428;47.836;35.106;2024-03-08T10:11:57;101775.53;;;5.01;53.48
29461;BME280;16428;47.836;35.106;2024-03-08T10:14:27;101786.13;;;4.90;52.35
29461;BME280;16428;47.836;35.106;2024-03-08T10:16:54;101789.75;;;4.65;53.21
29461;BME280;16428;47.836;35.106;2024-03-08T10:19:27;101788.91;;;5.81;51.18
29461;BME280;16428;47.836;35.106;2024-03-08T10:21:57;101791.25;;;5.39;51.16
29461;BME280;16428;47.836;35.106;2024-03-08T10:24:26;101774.47;;;5.61;51.74
29461;BME280;16428;47.836;35.106;2024-03-08T10:26:58;101774.63;;;6.38;48.73
29461;BME280;16428;47.836;35.106;2024-03-08T10:29:25;101774.72;;;6.47;49.38
29461;BME280;16428;47.836;35.106;2024-03-08T10:31:52;101769.06;;;7.04;46.83
29461;BME280;16428;47.836;35.106;2024-03-08T10:34:19;101766.84;;;6.46;47.10
29461;BME280;16428;47.836;35.106;2024-03-08T10:36:50;101766.38;;;6.29;47.69
29461;BME280;16428;47.836;35.106;2024-03-08T10:39:22;101763.91;;;6.92;47.76
29461;BME280;16428;47.836;35.106;2024-03-08T10:41:56;101762.97;;;7.14;47.06
29461;BME280;16428;47.836;35.106;2024-03-08T10:44:36;101761.03;;;7.04;46.13
29461;BME280;16428;47.836;35.106;2024-03-08T10:49:55;101767.44;;;7.34;47.57
29461;BME280;16428;47.836;35.106;2024-03-08T10:52:32;101745.06;;;7.76;46.95
29461;BME280;16428;47.836;35.106;2024-03-08T10:54:59;101749.94;;;8.02;45.65
29461;BME280;16428;47.836;35.106;2024-03-08T10:57:29;101750.25;;;8.49;46.49
29461;BME280;16428;47.836;35.106;2024-03-08T10:59:56;101755.69;;;7.67;43.25
29461;BME280;16428;47.836;35.106;2024-03-08T11:02:25;101747.00;;;6.05;47.67
29461;BME280;16428;47.836;35.106;2024-03-08T11:04:54;101745.91;;;6.62;46.69
29461;BME280;16428;47.836;35.106;2024-03-08T11:07:24;101738.50;;;7.18;49.14
29461;BME280;16428;47.836;35.106;2024-03-08T11:09:55;101737.63;;;8.20;47.83
29461;BME280;16428;47.836;35.106;2024-03-08T11:12:36;101734.75;;;8.02;44.23
29461;BME280;16428;47.836;35.106;2024-03-08T11:15:11;101732.22;;;7.70;44.55
29461;BME280;16428;47.836;35.106;2024-03-08T11:17:47;101726.06;;;8.29;43.62
29461;BME280;16428;47.836;35.106;2024-03-08T11:23:00;101727.59;;;8.81;43.64
29461;BME280;16428;47.836;35.106;2024-03-08T11:25:40;101726.13;;;7.99;42.86
29461;BME280;16428;47.836;35.106;2024-03-08T11:28:34;101725.88;;;8.52;43.72
29461;BME280;16428;47.836;35.106;2024-03-08T11:33:28;101724.28;;;7.90;44.25
29461;BME280;16428;47.836;35.106;2024-03-08T11:36:22;101730.50;;;6.97;45.50
29461;BME280;16428;47.836;35.106;2024-03-08T11:39:10;101719.34;;;7.95;44.61
29461;BME280;16428;47.836;35.106;2024-03-08T11:41:43;101724.41;;;7.88;43.40
29461;BME280;16428;47.836;35.106;2024-03-08T11:44:12;101714.78;;;7.76;42.73
29461;BME280;16428;47.836;35.106;2024-03-08T11:46:43;101721.31;;;7.32;43.71
29461;BME280;16428;47.836;35.106;2024-03-08T11:49:14;101722.56;;;7.28;45.35
29461;BME280;16428;47.836;35.106;2024-03-08T11:51:43;101707.19;;;7.81;44.67
29461;BME280;16428;47.836;35.106;2024-03-08T11:54:11;101710.78;;;8.01;43.06
29461;BME280;16428;47.836;35.106;2024-03-08T11:56:42;101705.84;;;8.56;42.51
29461;BME280;16428;47.836;35.106;2024-03-08T11:59:12;101706.97;;;8.34;43.29
29461;BME280;16428;47.836;35.106;2024-03-08T12:01:42;101688.59;;;7.49;43.72
29461;BME280;16428;47.836;35.106;2024-03-08T12:04:12;101691.41;;;8.18;43.55
29461;BME280;16428;47.836;35.106;2024-03-08T12:06:41;101696.69;;;8.58;42.18
29461;BME280;16428;47.836;35.106;2024-03-08T12:09:09;101699.66;;;8.65;41.28
29461;BME280;16428;47.836;35.106;2024-03-08T12:11:37;101689.78;;;8.46;42.73
29461;BME280;16428;47.836;35.106;2024-03-08T12:14:05;101691.28;;;7.80;43.19
29461;BME280;16428;47.836;35.106;2024-03-08T12:16:33;101698.53;;;8.38;42.65
29461;BME280;16428;47.836;35.106;2024-03-08T12:19:00;101696.56;;;8.79;42.04
29461;BME280;16428;47.836;35.106;2024-03-08T12:21:31;101693.16;;;9.15;41.76
29461;BME280;16428;47.836;35.106;2024-03-08T12:24:07;101691.19;;;8.98;42.00
29461;BME280;16428;47.836;35.106;2024-03-08T12:26:39;101688.97;;;8.55;40.57
29461;BME280;16428;47.836;35.106;2024-03-08T12:29:25;101688.09;;;8.93;40.28
29461;BME280;16428;47.836;35.106;2024-03-08T12:31:59;101684.28;;;8.96;40.83
29461;BME280;16428;47.836;35.106;2024-03-08T12:34:32;101686.94;;;8.86;40.80
29461;BME280;16428;47.836;35.106;2024-03-08T12:36:59;101686.34;;;9.31;39.93
29461;BME280;16428;47.836;35.106;2024-03-08T12:39:26;101686.00;;;8.68;40.60
29461;BME280;16428;47.836;35.106;2024-03-08T12:41:54;101680.78;;;8.86;40.42
29461;BME280;16428;47.836;35.106;2024-03-08T12:44:21;101675.97;;;8.79;39.52
29461;BME280;16428;47.836;35.106;2024-03-08T12:46:49;101675.28;;;8.68;40.41
29461;BME280;16428;47.836;35.106;2024-03-08T12:49:19;101672.88;;;8.45;40.62
29461;BME280;16428;47.836;35.106;2024-03-08T12:51:49;101668.03;;;7.70;41.82
29461;BME280;16428;47.836;35.106;2024-03-08T12:54:16;101672.03;;;8.45;40.69
29461;BME280;16428;47.836;35.106;2024-03-08T12:56:43;101662.16;;;8.36;40.73
29461;BME280;16428;47.836;35.106;2024-03-08T12:59:10;101666.81;;;8.63;40.37
29461;BME280;16428;47.836;35.106;2024-03-08T13:01:37;101657.19;;;9.55;38.38